^^
Saratoga-Weather Station Historical Data
Daily Summary for September 5, 2021 Units:  English    Metric   Both
Daily Weekly Monthly Yearly Custom
  High: Low: Average:
Temperature: 61.9 °F 47.1 °F 52.3 °F
Dew Point: 54.3 °F 46 °F 49.8 °F
Humidity: 97% 73% 91%
Wind Speed: 14mph 0mph 1.4mph
Wind Gust: 14mph - -
Wind- - South
Pressure: 30 in 29.7 in -
Precipitation: 0.3 in    
Historical Graphs
 
 
Tabular Data for September 5, 2021
Time Temperature Dew Point Pressure Wind Wind Speed Wind Gust Humidity Rainfall Rate (Hourly) solar
00:04 48.6 °F 47.1 °F 30 in Calm     95% 0 in 0 W/m2
00:09 48.6 °F 47.1 °F 30 in Calm     95% 0 in 0 W/m2
00:14 48.6 °F 47.1 °F 30 in Calm     95% 0 in 0 W/m2
00:19 48.4 °F 46.9 °F 30 in Calm     95% 0 in 0 W/m2
00:24 48.4 °F 46.9 °F 30 in Calm     95% 0 in 0 W/m2
00:29 48.2 °F 46.8 °F 30 in Calm     95% 0 in 0 W/m2
00:35 48 °F 46.6 °F 30 in Calm     95% 0 in 0 W/m2
00:40 48 °F 46.6 °F 30 in Calm     95% 0 in 0 W/m2
00:45 47.8 °F 46.4 °F 30 in Calm     95% 0 in 0 W/m2
00:50 47.8 °F 46.4 °F 30 in Calm     95% 0 in 0 W/m2
00:55 47.7 °F 46.2 °F 30 in Calm     95% 0 in 0 W/m2
01:00 47.7 °F 46.2 °F 30 in Calm     95% 0 in 0 W/m2
01:05 47.7 °F 46.6 °F 30 in Calm     96% 0 in 0 W/m2
01:10 47.8 °F 46.8 °F 30 in Calm     96% 0 in 0 W/m2
01:15 47.8 °F 46.8 °F 30 in Calm     96% 0 in 0 W/m2
01:20 47.8 °F 46.4 °F 30 in Calm     95% 0 in 0 W/m2
01:25 47.8 °F 46.8 °F 30 in Calm     96% 0 in 0 W/m2
01:30 48 °F 46.9 °F 30 in Calm     96% 0 in 0 W/m2
01:35 48 °F 46.9 °F 29.9 in Calm     96% 0 in 0 W/m2
01:40 48 °F 46.9 °F 29.9 in Calm     96% 0 in 0 W/m2
01:45 48 °F 46.9 °F 29.9 in Calm     96% 0 in 0 W/m2
01:50 48.2 °F 47.1 °F 29.9 in Calm     96% 0 in 0 W/m2
01:55 48.2 °F 47.1 °F 29.9 in Calm     96% 0 in 0 W/m2
02:00 48.4 °F 47.3 °F 29.9 in Calm     96% 0 in 0 W/m2
02:05 48.4 °F 47.3 °F 29.9 in Calm     96% 0 in 0 W/m2
02:10 48.4 °F 47.3 °F 29.9 in Calm     96% 0 in 0 W/m2
02:15 48.4 °F 47.3 °F 29.9 in Calm     96% 0 in 0 W/m2
02:20 48.4 °F 47.3 °F 29.9 in Calm     96% 0 in 0 W/m2
02:25 48.4 °F 47.3 °F 29.9 in Calm     96% 0 in 0 W/m2
02:30 48.4 °F 47.3 °F 29.9 in Calm     96% 0 in 0 W/m2
02:35 48.4 °F 47.3 °F 29.9 in Calm     96% 0 in 0 W/m2
02:40 48.4 °F 47.3 °F 29.9 in Calm     96% 0 in 0 W/m2
02:45 48.4 °F 47.3 °F 29.9 in Calm     96% 0 in 0 W/m2
02:50 48.2 °F 47.1 °F 29.9 in Calm     96% 0 in 0 W/m2
02:55 48 °F 46.9 °F 29.9 in Calm     96% 0 in 0 W/m2
03:00 48 °F 46.9 °F 29.9 in Calm     96% 0 in 0 W/m2
03:05 48 °F 46.9 °F 29.9 in Calm     96% 0 in 0 W/m2
03:10 48 °F 46.9 °F 29.9 in Calm     96% 0 in 0 W/m2
03:15 47.8 °F 46.8 °F 29.9 in Calm     96% 0 in 0 W/m2
03:20 47.8 °F 46.8 °F 29.9 in Calm     96% 0 in 0 W/m2
03:25 47.8 °F 46.8 °F 29.9 in Calm     96% 0 in 0 W/m2
03:30 47.8 °F 46.8 °F 29.9 in Calm     96% 0 in 0 W/m2
03:35 47.8 °F 46.8 °F 29.9 in Calm     96% 0 in 0 W/m2
03:40 47.8 °F 46.8 °F 29.9 in Calm     96% 0 in 0 W/m2
03:45 47.8 °F 46.8 °F 29.9 in Calm     96% 0 in 0 W/m2
03:50 47.8 °F 46.8 °F 29.9 in Calm     96% 0 in 0 W/m2
03:55 47.7 °F 46.6 °F 29.9 in Calm     96% 0 in 0 W/m2
04:00 47.7 °F 46.6 °F 29.9 in Calm     96% 0 in 0 W/m2
04:05 47.7 °F 46.6 °F 29.9 in Calm     96% 0 in 0 W/m2
04:10 47.7 °F 46.6 °F 29.9 in Calm     96% 0 in 0 W/m2
04:15 47.5 °F 46.4 °F 29.9 in Calm     96% 0 in 0 W/m2
04:20 47.5 °F 46.4 °F 29.9 in Calm     96% 0 in 0 W/m2
04:25 47.5 °F 46.4 °F 29.9 in Calm     96% 0 in 0 W/m2
04:30 47.5 °F 46.4 °F 29.9 in Calm     96% 0 in 0 W/m2
04:35 47.5 °F 46.4 °F 29.9 in Calm     96% 0 in 0 W/m2
04:40 47.5 °F 46.4 °F 29.9 in Calm     96% 0 in 0 W/m2
04:45 47.5 °F 46.4 °F 29.9 in Calm     96% 0 in 0 W/m2
04:50 47.3 °F 46.2 °F 29.9 in Calm     96% 0 in 0 W/m2
04:55 47.5 °F 46.4 °F 29.9 in Calm     96% 0 in 0 W/m2
05:00 47.3 °F 46.2 °F 29.9 in Calm     96% 0 in 0 W/m2
05:05 47.1 °F 46 °F 29.9 in Calm     96% 0 in 0 W/m2
05:10 47.1 °F 46 °F 29.9 in Calm     96% 0 in 0 W/m2
05:15 47.3 °F 46.2 °F 29.9 in Calm     96% 0 in 0 W/m2
05:20 47.5 °F 46.4 °F 29.9 in Calm     96% 0 in 0 W/m2
05:25 47.5 °F 46.4 °F 29.9 in Calm     96% 0 in 0 W/m2
05:30 47.7 °F 46.9 °F 29.9 in Calm     97% 0 in 0 W/m2
05:35 47.7 °F 46.9 °F 29.9 in Calm     97% 0 in 0 W/m2
05:40 47.8 °F 46.9 °F 29.9 in Calm     97% 0 in 0 W/m2
05:45 47.8 °F 46.9 °F 29.9 in Calm     97% 0 in 0 W/m2
05:50 47.8 °F 46.8 °F 29.9 in Calm     96% 0 in 0 W/m2
05:55 47.8 °F 46.9 °F 29.9 in Calm     97% 0 in 0 W/m2
06:00 47.8 °F 46.9 °F 29.9 in Calm     97% 0 in 0 W/m2
06:06 47.7 °F 46.6 °F 29.9 in Calm     96% 0 in 0 W/m2
06:11 47.7 °F 46.6 °F 29.9 in Calm     96% 0 in 0 W/m2
06:16 47.7 °F 46.9 °F 29.9 in Calm     97% 0 in 0 W/m2
06:21 47.7 °F 46.9 °F 29.9 in Calm     97% 0 in 0 W/m2
06:26 47.7 °F 46.9 °F 29.9 in Calm     97% 0 in 0 W/m2
06:31 47.7 °F 46.9 °F 29.9 in Calm     97% 0 in 0 W/m2
06:36 47.5 °F 46.4 °F 29.9 in Calm     96% 0 in 0 W/m2
06:41 47.5 °F 46.4 °F 29.9 in Calm     96% 0 in 0 W/m2
06:46 47.5 °F 46.4 °F 29.9 in Calm     96% 0 in 0 W/m2
06:51 47.5 °F 46.4 °F 29.8 in Calm     96% 0 in 0 W/m2
06:56 47.5 °F 46.4 °F 29.8 in Calm     96% 0 in 0 W/m2
07:01 47.5 °F 46.4 °F 29.8 in Calm     96% 0 in 0 W/m2
07:06 47.5 °F 46.4 °F 29.8 in Calm     96% 0 in 0 W/m2
07:11 47.5 °F 46.8 °F 29.8 in Calm   2 mph 97% 0 in 0 W/m2
07:16 47.7 °F 46.9 °F 29.8 in Calm   1 mph 97% 0 in 0 W/m2
07:21 47.7 °F 46.9 °F 29.8 in Calm     97% 0 in 0 W/m2
07:26 47.7 °F 46.9 °F 29.8 in Calm     97% 0 in 0 W/m2
07:31 47.7 °F 46.9 °F 29.8 in Calm     97% 0 in 0 W/m2
07:36 47.7 °F 46.9 °F 29.8 in Calm     97% 0 in 0 W/m2
07:41 47.7 °F 46.9 °F 29.8 in Calm     97% 0 in 0 W/m2
07:46 47.8 °F 46.9 °F 29.8 in Calm   1 mph 97% 0 in 0 W/m2
07:51 47.8 °F 46.9 °F 29.8 in Calm     97% 0 in 5 W/m2
07:56 47.8 °F 46.9 °F 29.8 in Calm   1 mph 97% 0 in 7 W/m2
08:01 47.8 °F 46.9 °F 29.8 in Calm     97% 0 in 9 W/m2
08:06 48 °F 47.1 °F 29.8 in Calm   2 mph 97% 0 in 11 W/m2
08:11 48 °F 47.1 °F 29.8 in Calm     97% 0 in 12 W/m2
08:16 48.2 °F 47.3 °F 29.8 in Calm   2 mph 97% 0 in 18 W/m2
08:21 48.2 °F 47.3 °F 29.8 in Calm     97% 0 in 19 W/m2
08:26 48.2 °F 47.3 °F 29.8 in Calm     97% 0 in 14 W/m2
08:31 48.2 °F 47.3 °F 29.8 in Calm     97% 0 in 14 W/m2
08:36 48 °F 47.1 °F 29.8 in Calm     97% 0 in 16 W/m2
08:41 48 °F 47.1 °F 29.8 in Calm     97% 0 in 21 W/m2
08:46 48 °F 47.1 °F 29.8 in Calm     97% 0 in 23 W/m2
08:51 47.8 °F 46.9 °F 29.8 in Calm     97% 0 in 26 W/m2
08:56 47.8 °F 46.9 °F 29.8 in Calm     97% 0 in 30 W/m2
09:01 47.8 °F 46.9 °F 29.8 in Calm     97% 0 in 25 W/m2
09:06 47.8 °F 46.9 °F 29.8 in Calm     97% 0 in 32 W/m2
09:11 47.8 °F 46.9 °F 29.8 in Calm     97% 0 in 46 W/m2
09:16 47.8 °F 46.9 °F 29.8 in Calm     97% 0 in 46 W/m2
09:21 48 °F 47.1 °F 29.8 in Calm     97% 0 in 176 W/m2
09:26 48.4 °F 47.5 °F 29.8 in Calm   1 mph 97% 0 in 199 W/m2
09:31 48.7 °F 47.8 °F 29.8 in Calm     97% 0 in 230 W/m2
09:36 49.1 °F 48.2 °F 29.8 in Calm   1 mph 97% 0 in 232 W/m2
09:41 49.3 °F 48.4 °F 29.8 in Calm     97% 0 in 232 W/m2
09:46 49.6 °F 48.7 °F 29.8 in East 1 mph 1 mph 97% 0 in 156 W/m2
09:51 50 °F 49.1 °F 29.8 in Calm     97% 0 in 223 W/m2
09:56 50.4 °F 49.5 °F 29.8 in Calm   1 mph 97% 0 in 265 W/m2
10:01 50.7 °F 49.8 °F 29.8 in Calm   2 mph 97% 0 in 265 W/m2
10:06 51.3 °F 50.4 °F 29.8 in Calm     97% 0 in 279 W/m2
10:11 51.6 °F 50.7 °F 29.8 in North 2 mph 2 mph 97% 0 in 53 W/m2
10:16 52 °F 51.1 °F 29.8 in ENE 0.9 mph 4 mph 97% 0 in 320 W/m2
10:21 52.5 °F 51.6 °F 29.8 in NE 0.9 mph 4 mph 97% 0 in 63 W/m2
10:26 53.1 °F 52.2 °F 29.8 in North 0.9 mph 2 mph 97% 0 in 327 W/m2
10:31 53.8 °F 52.9 °F 29.8 in East 2 mph 7 mph 97% 0 in 255 W/m2
10:36 54.3 °F 52.9 °F 29.8 in North 2 mph 3 mph 95% 0 in 364 W/m2
10:41 55 °F 53.1 °F 29.8 in East 2.9 mph 7 mph 93% 0 in 369 W/m2
10:46 55.6 °F 53.1 °F 29.8 in Calm   2 mph 91% 0 in 376 W/m2
10:51 56.1 °F 53.2 °F 29.8 in NE 2.9 mph 4 mph 90% 0 in 406 W/m2
10:56 56.5 °F 52.9 °F 29.8 in NNE 0.9 mph 2 mph 88% 0 in 432 W/m2
11:01 56.7 °F 52.5 °F 29.8 in ENE 0.9 mph 4 mph 86% 0 in 388 W/m2
11:06 57 °F 52.9 °F 29.8 in WNW 0.9 mph 2 mph 86% 0 in 424 W/m2
11:11 57.6 °F 53.1 °F 29.8 in East 4 mph 6 mph 85% 0 in 438 W/m2
11:16 57.9 °F 52.7 °F 29.8 in ENE 4 mph 8 mph 83% 0 in 461 W/m2
11:21 58.3 °F 52.9 °F 29.8 in North 0.9 mph 4 mph 82% 0 in 434 W/m2
11:26 58.5 °F 53.1 °F 29.8 in ESE 4 mph 5 mph 82% 0 in 547 W/m2
11:31 58.6 °F 53.2 °F 29.8 in NE 2.9 mph 4 mph 82% 0 in 100 W/m2
11:36 58.8 °F 53.1 °F 29.8 in East 4 mph 4 mph 81% 0 in 162 W/m2
11:41 58.8 °F 53.1 °F 29.8 in North 0.9 mph 2 mph 81% 0 in 431 W/m2
11:46 59.2 °F 53.4 °F 29.8 in NE 4.9 mph 6 mph 81% 0 in 520 W/m2
11:51 59.4 °F 53.2 °F 29.8 in East 6 mph 6 mph 80% 0 in 97 W/m2
11:57 59.4 °F 53.2 °F 29.8 in ENE 2.9 mph 5 mph 80% 0 in 373 W/m2
12:02 59.4 °F 53.6 °F 29.8 in WNW 4 mph 4 mph 81% 0 in 399 W/m2
12:07 59.4 °F 53.6 °F 29.8 in East 4 mph 4 mph 81% 0 in 244 W/m2
12:12 59.7 °F 53.6 °F 29.8 in NW 2.9 mph 5 mph 80% 0 in 174 W/m2
12:17 60.3 °F 54.1 °F 29.8 in ESE 2.9 mph 9 mph 80% 0 in 366 W/m2
12:22 60.4 °F 54.3 °F 29.8 in NE 2 mph 5 mph 80% 0 in 192 W/m2
12:27 61 °F 54.1 °F 29.8 in SE 8.9 mph 9 mph 78% 0 in 214 W/m2
12:32 61.2 °F 54 °F 29.8 in NE 0.9 mph 8 mph 77% 0 in 446 W/m2
12:37 61.3 °F 53.8 °F 29.8 in ENE 4 mph 7 mph 76% 0 in 214 W/m2
12:42 61.5 °F 53.6 °F 29.8 in NW 0.9 mph 7 mph 75% 0 in 638 W/m2
12:47 61.7 °F 53.8 °F 29.8 in NE 4.9 mph 6 mph 75% 0 in 197 W/m2
12:52 61.5 °F 53.2 °F 29.8 in North 0.9 mph 6 mph 74% 0 in 188 W/m2
12:57 61.9 °F 53.4 °F 29.8 in East 10.1 mph 11 mph 74% 0 in 287 W/m2
13:02 61.9 °F 53.1 °F 29.8 in ENE 2.9 mph 8 mph 73% 0 in 209 W/m2
13:07 61.7 °F 52.9 °F 29.7 in NNW 14 mph 14 mph 73% 0 in 190 W/m2
13:12 61.7 °F 53.2 °F 29.8 in NE 0.9 mph 3 mph 74% 0 in 155 W/m2
13:17 61.5 °F 52.7 °F 29.8 in NE 11 mph 11 mph 73% 0 in 220 W/m2
13:22 61.5 °F 53.2 °F 29.7 in East 2 mph 2 mph 74% 0 in 211 W/m2
13:27 61.5 °F 53.2 °F 29.7 in ENE 2 mph 5 mph 74% 0 in 232 W/m2
13:32 61.5 °F 53.2 °F 29.7 in ENE 4.9 mph 5 mph 74% 0 in 146 W/m2
13:37 61.3 °F 53.1 °F 29.7 in ENE 4 mph 5 mph 74% 0 in 113 W/m2
13:42 61.3 °F 53.4 °F 29.7 in ENE 0.9 mph 6 mph 75% 0 in 192 W/m2
13:47 61.3 °F 53.8 °F 29.7 in North 2 mph 6 mph 76% 0 in 216 W/m2
13:52 61.5 °F 53.2 °F 29.7 in WNW 6.9 mph 7 mph 74% 0 in 104 W/m2
13:57 61.5 °F 53.2 °F 29.7 in ENE 2.9 mph 5 mph 74% 0 in 97 W/m2
14:02 61.3 °F 53.1 °F 29.7 in NNW 4.9 mph 5 mph 74% 0 in 72 W/m2
14:07 61.2 °F 53.2 °F 29.7 in North 2 mph 6 mph 75% 0 in 56 W/m2
14:12 61 °F 53.1 °F 29.7 in Calm   6 mph 75% 0 in 46 W/m2
14:17 60.8 °F 52.9 °F 29.7 in East 2.9 mph 4 mph 75% 0 in 65 W/m2
14:22 60.8 °F 53.6 °F 29.7 in NE 0.9 mph 4 mph 77% 0 in 114 W/m2
14:27 60.6 °F 53.4 °F 29.7 in West 2.9 mph 4 mph 77% 0 in 77 W/m2
14:32 60.4 °F 54 °F 29.7 in SE 2.9 mph 3 mph 79% 0 in 56 W/m2
14:37 60.3 °F 53.8 °F 29.7 in ENE 8 mph 8 mph 79% 0 in 102 W/m2
14:42 60.1 °F 54.3 °F 29.7 in NNE 2.9 mph 3 mph 81% 0 in 88 W/m2
14:47 59.7 °F 54.1 °F 29.7 in ENE 2 mph 7 mph 82% 0 in 65 W/m2
14:52 59.4 °F 54.1 °F 29.7 in NW 4 mph 8 mph 83% 0.01 in 93 W/m2
14:57 59.2 °F 54 °F 29.7 in NW 2 mph 4 mph 83% 0.01 in 83 W/m2
15:02 58.8 °F 54 °F 29.7 in NW 8 mph 8 mph 84% 0.02 in 84 W/m2
15:07 58.6 °F 54.1 °F 29.7 in ENE 0.9 mph 6 mph 85% 0.02 in 58 W/m2
15:12 58.5 °F 54 °F 29.7 in ENE 2.9 mph 5 mph 85% 0.02 in 42 W/m2
15:17 58.3 °F 54.1 °F 29.7 in NNE 0.9 mph 6 mph 86% 0.03 in 49 W/m2
15:22 57.9 °F 54.1 °F 29.7 in NE 2 mph 5 mph 87% 0.04 in 63 W/m2
15:27 57.7 °F 54.1 °F 29.7 in ENE 2.9 mph 4 mph 88% 0.06 in 67 W/m2
15:32 57.6 °F 54 °F 29.7 in NNE 2 mph 5 mph 88% 0.07 in 72 W/m2
15:37 57.4 °F 54.1 °F 29.7 in NNW 2 mph 4 mph 89% 0.08 in 60 W/m2
15:42 57 °F 54.1 °F 29.7 in Calm   2 mph 90% 0.09 in 42 W/m2
15:47 57 °F 54.1 °F 29.7 in WSW 0.9 mph 2 mph 90% 0.09 in 23 W/m2
15:52 56.8 °F 54 °F 29.7 in NE 2 mph 3 mph 90% 0.09 in 28 W/m2
15:57 56.8 °F 54.3 °F 29.7 in NNE 0.9 mph 3 mph 91% 0.1 in 56 W/m2
16:02 56.7 °F 54.1 °F 29.7 in NE 2.9 mph 5 mph 91% 0.1 in 42 W/m2
16:07 56.7 °F 54.1 °F 29.7 in NE 2 mph 7 mph 91% 0.1 in 54 W/m2
16:12 56.5 °F 54 °F 29.7 in NW 0.9 mph 4 mph 91% 0.11 in 86 W/m2
16:17 56.1 °F 53.6 °F 29.7 in NNE 2.9 mph 4 mph 91% 0.11 in 62 W/m2
16:22 56.1 °F 53.6 °F 29.7 in ENE 0.9 mph 4 mph 91% 0.1 in 93 W/m2
16:27 56.1 °F 53.8 °F 29.7 in NW 2 mph 4 mph 92% 0.09 in 97 W/m2
16:32 55.9 °F 53.6 °F 29.7 in East 2.9 mph 3 mph 92% 0.08 in 91 W/m2
16:37 55.9 °F 53.6 °F 29.7 in ENE 0.9 mph 5 mph 92% 0.08 in 47 W/m2
16:42 55.9 °F 53.6 °F 29.7 in NE 2 mph 6 mph 92% 0.07 in 46 W/m2
16:47 55.9 °F 53.6 °F 29.7 in NE 2 mph 4 mph 92% 0.07 in 33 W/m2
16:52 55.9 °F 53.6 °F 29.7 in NE 0.9 mph 6 mph 92% 0.06 in 47 W/m2
16:57 55.9 °F 53.6 °F 29.7 in North 2.9 mph 3 mph 92% 0.06 in 40 W/m2
17:02 55.9 °F 54 °F 29.7 in NNE 2 mph 2 mph 93% 0.06 in 35 W/m2
17:07 55.8 °F 53.8 °F 29.7 in ENE 2.9 mph 4 mph 93% 0.06 in 28 W/m2
17:12 55.8 °F 53.8 °F 29.7 in ENE 4.9 mph 5 mph 93% 0.07 in 37 W/m2
17:17 55.8 °F 53.8 °F 29.7 in NE 4.9 mph 6 mph 93% 0.07 in 60 W/m2
17:22 55.8 °F 53.8 °F 29.7 in Calm   4 mph 93% 0.08 in 56 W/m2
17:27 55.8 °F 53.8 °F 29.7 in NNW 2 mph 5 mph 93% 0.08 in 44 W/m2
17:32 55.8 °F 54.1 °F 29.7 in North 2 mph 4 mph 94% 0.09 in 33 W/m2
17:37 55.8 °F 54.1 °F 29.7 in NNW 4 mph 4 mph 94% 0.09 in 12 W/m2
17:42 55.8 °F 53.8 °F 29.7 in ENE 0.9 mph 4 mph 93% 0.1 in 12 W/m2
17:48 55.8 °F 53.8 °F 29.7 in West 2.9 mph 5 mph 93% 0.09 in 47 W/m2
17:53 55.6 °F 53.6 °F 29.7 in West 2.9 mph 7 mph 93% 0.09 in 53 W/m2
17:58 55.4 °F 53.1 °F 29.7 in WSW 4.9 mph 10 mph 92% 0.09 in 35 W/m2
18:03 55.2 °F 52.7 °F 29.7 in WSW 4 mph 8 mph 91% 0.09 in 86 W/m2
18:08 55.2 °F 52.3 °F 29.8 in WSW 4 mph 9 mph 90% 0.08 in 77 W/m2
18:13 55 °F 52.2 °F 29.8 in WSW 4.9 mph 5 mph 90% 0.06 in 39 W/m2
18:18 54.9 °F 52 °F 29.8 in WNW 4 mph 9 mph 90% 0.06 in 21 W/m2
18:23 54.7 °F 51.8 °F 29.8 in WSW 2.9 mph 8 mph 90% 0.05 in 21 W/m2
18:28 54.3 °F 51.8 °F 29.8 in West 2.9 mph 6 mph 91% 0.04 in 14 W/m2
18:33 54.1 °F 51.6 °F 29.8 in WNW 4 mph 6 mph 91% 0.03 in 11 W/m2
18:38 54.1 °F 51.6 °F 29.8 in NW 8.1 mph 11 mph 91% 0.02 in 9 W/m2
18:43 54 °F 51.4 °F 29.8 in West 2 mph 5 mph 91% 0.01 in 9 W/m2
18:48 54 °F 51.4 °F 29.8 in West 2.9 mph 11 mph 91% 0.01 in 7 W/m2
18:53 53.8 °F 51.3 °F 29.8 in West 2.9 mph 6 mph 91% 0.01 in 7 W/m2
18:58 53.8 °F 51.3 °F 29.8 in NW 2 mph 5 mph 91% 0.01 in 5 W/m2
19:03 53.8 °F 51.3 °F 29.8 in West 0.9 mph 4 mph 91% 0 in 0 W/m2
19:08 53.8 °F 51.4 °F 29.8 in Calm   3 mph 92% 0 in 0 W/m2
19:13 53.6 °F 51.3 °F 29.8 in Calm   4 mph 92% 0 in 0 W/m2
19:18 53.6 °F 51.3 °F 29.8 in West 2 mph 4 mph 92% 0 in 0 W/m2
19:23 53.6 °F 51.3 °F 29.8 in North 0.9 mph 9 mph 92% 0 in 0 W/m2
19:28 53.4 °F 51.1 °F 29.8 in West 8.1 mph 8 mph 92% 0 in 0 W/m2
19:33 53.2 °F 50.7 °F 29.8 in NNW 0.9 mph 5 mph 91% 0 in 0 W/m2
19:38 53.2 °F 50.7 °F 29.8 in NNE 0.9 mph 2 mph 91% 0 in 0 W/m2
19:43 53.1 °F 50.5 °F 29.8 in NNW 2.9 mph 5 mph 91% 0 in 0 W/m2
19:48 53.1 °F 50.2 °F 29.8 in SW 2 mph 5 mph 90% 0 in 0 W/m2
19:53 53.1 °F 50.2 °F 29.8 in Calm   3 mph 90% 0 in 0 W/m2
19:58 53.1 °F 50.2 °F 29.8 in SE 2 mph 5 mph 90% 0 in 0 W/m2
20:03 53.1 °F 50.2 °F 29.8 in NNW 2 mph 3 mph 90% 0 in 0 W/m2
20:08 53.1 °F 50.2 °F 29.8 in NW 2.9 mph 3 mph 90% 0 in 0 W/m2
20:13 52.9 °F 50 °F 29.8 in WNW 2 mph 3 mph 90% 0 in 0 W/m2
20:18 52.5 °F 49.6 °F 29.8 in WSW 4.9 mph 8 mph 90% 0 in 0 W/m2
20:23 52.3 °F 49.5 °F 29.8 in NW 4.9 mph 5 mph 90% 0 in 0 W/m2
20:28 52.2 °F 49.3 °F 29.8 in West 2.9 mph 8 mph 90% 0 in 0 W/m2
20:33 52 °F 48.9 °F 29.8 in WSW 8.1 mph 8 mph 89% 0 in 0 W/m2
20:38 52.2 °F 49.1 °F 29.8 in West 2.9 mph 8 mph 89% 0 in 0 W/m2
20:43 52.2 °F 49.1 °F 29.8 in West 2 mph 3 mph 89% 0 in 0 W/m2
20:48 52 °F 48.9 °F 29.8 in NW 2 mph 4 mph 89% 0 in 0 W/m2
20:53 52 °F 48.9 °F 29.8 in NNW 4 mph 4 mph 89% 0 in 0 W/m2
20:58 51.8 °F 48.9 °F 29.8 in Calm   3 mph 90% 0 in 0 W/m2
21:03 51.8 °F 48.9 °F 29.8 in Calm   1 mph 90% 0 in 0 W/m2
21:08 51.6 °F 48.7 °F 29.9 in WNW 0.9 mph 3 mph 90% 0 in 0 W/m2
21:13 51.8 °F 49.3 °F 29.9 in WNW 0.9 mph 4 mph 91% 0 in 0 W/m2
21:18 51.6 °F 48.7 °F 29.9 in NW 2.9 mph 9 mph 90% 0.01 in 0 W/m2
21:23 51.4 °F 48.9 °F 29.9 in WNW 2.9 mph 3 mph 91% 0.02 in 0 W/m2
21:28 51.4 °F 48.9 °F 29.8 in Calm   4 mph 91% 0.02 in 0 W/m2
21:33 51.3 °F 48.7 °F 29.9 in Calm   2 mph 91% 0.02 in 0 W/m2
21:38 51.3 °F 48.7 °F 29.9 in NW 2.9 mph 5 mph 91% 0.02 in 0 W/m2
21:43 51.1 °F 48.6 °F 29.9 in West 0.9 mph 2 mph 91% 0.02 in 0 W/m2
21:48 50.9 °F 48.4 °F 29.9 in Calm   3 mph 91% 0.02 in 0 W/m2
21:53 50.7 °F 48.2 °F 29.9 in South 0.9 mph 2 mph 91% 0.02 in 0 W/m2
21:58 50.7 °F 48.2 °F 29.9 in West 2 mph 4 mph 91% 0.02 in 0 W/m2
22:03 50.7 °F 48.2 °F 29.9 in NW 0.9 mph 4 mph 91% 0.02 in 0 W/m2
22:08 50.7 °F 48.2 °F 29.9 in ENE 0.9 mph 5 mph 91% 0.02 in 0 W/m2
22:13 50.7 °F 48.6 °F 29.9 in Calm   1 mph 92% 0.02 in 0 W/m2
22:18 50.5 °F 48 °F 29.9 in NNW 2 mph 5 mph 91% 0.02 in 0 W/m2
22:23 50.4 °F 48.2 °F 29.9 in WNW 2 mph 2 mph 92% 0 in 0 W/m2
22:28 50.4 °F 48.2 °F 29.9 in NE 0.9 mph 3 mph 92% 0 in 0 W/m2
22:33 50.4 °F 48.2 °F 29.9 in NNE 0.9 mph 2 mph 92% 0 in 0 W/m2
22:38 50.2 °F 48 °F 29.9 in Calm   1 mph 92% 0 in 0 W/m2
22:43 50.2 °F 48.2 °F 29.9 in NNW 0.9 mph 2 mph 93% 0 in 0 W/m2
22:48 50.2 °F 48.2 °F 29.9 in WNW 2.9 mph 5 mph 93% 0 in 0 W/m2
22:53 50.4 °F 48.4 °F 29.9 in North 0.9 mph 3 mph 93% 0 in 0 W/m2
22:58 50.4 °F 48.4 °F 29.9 in North 0.9 mph 5 mph 93% 0 in 0 W/m2
23:03 50.4 °F 48.4 °F 29.9 in Calm   1 mph 93% 0 in 0 W/m2
23:08 50.4 °F 48.7 °F 29.9 in Calm   2 mph 94% 0 in 0 W/m2
23:13 50.4 °F 48.7 °F 29.9 in Calm   1 mph 94% 0 in 0 W/m2
23:18 50.4 °F 48.7 °F 29.9 in Calm   1 mph 94% 0 in 0 W/m2
23:23 50.4 °F 48.7 °F 29.9 in Calm   3 mph 94% 0 in 0 W/m2
23:28 50.5 °F 48.9 °F 29.9 in SSW 2 mph 3 mph 94% 0 in 0 W/m2
23:33 50.5 °F 48.9 °F 29.9 in Calm   3 mph 94% 0 in 0 W/m2
23:38 50.7 °F 49.1 °F 29.9 in Calm   2 mph 94% 0.01 in 0 W/m2
23:44 50.7 °F 49.1 °F 29.9 in East 0.9 mph 2 mph 94% 0.01 in 0 W/m2
23:49 50.9 °F 49.3 °F 29.9 in East 4.9 mph 5 mph 94% 0.01 in 0 W/m2
23:54 50.9 °F 49.3 °F 29.9 in SSW 0.9 mph 2 mph 94% 0.01 in 0 W/m2
23:59 51.1 °F 49.5 °F 29.9 in SW 0.9 mph 1 mph 94% 0.01 in 0 W/m2
Juneau County Weather
Compliments of Weather Underground - 4 mb